ADDS METAR Data

Data at: 0721 UTC 16 Jan 2018

METAR for:KSAN (San Diego Intl Arpt, CA, US)
Text:KSAN 160651Z 33004KT 8SM BKN200 BKN250 15/12 A3012 RMK AO2 SLP200 T01500117
Temperature: 15.0°C ( 59°F)
Dewpoint: 11.7°C ( 53°F) [RH = 81%]
Pressure (altimeter):30.12 inches Hg (1020.1 mb) [Sea level pressure: 1020.0 mb]
Winds:from the NNW (330 degrees) at 5 MPH (4 knots; 2.1 m/s)
Visibility: 8 sm ( 13 km)
Ceiling:20000 feet AGL
Clouds: broken clouds at 20000 feet AGL, broken clouds at 25000 feet AGL